createdAt,value
2024-03-11T00:01:20.096Z,96425.94
2024-03-11T00:02:52.117Z,96423.69
2024-03-11T00:04:25.431Z,96431.16
2024-03-11T00:05:57.079Z,96437.97
2024-03-11T00:07:35.047Z,96436.91
2024-03-11T00:09:16.899Z,96434.38
2024-03-11T00:10:56.915Z,96439.06
2024-03-11T00:12:30.704Z,96447.84
2024-03-11T00:14:02.467Z,96446.44
2024-03-11T00:15:35.053Z,96448.50
2024-03-11T00:17:07.327Z,96452.16
2024-03-11T00:18:41.331Z,96453.34
2024-03-11T00:20:13.102Z,96451.19
2024-03-11T00:21:44.776Z,96462.97
2024-03-11T00:23:16.472Z,96462.88
2024-03-11T00:24:48.130Z,96460.06
2024-03-11T00:26:21.339Z,96468.09
2024-03-11T00:27:53.013Z,96470.88
2024-03-11T00:29:24.931Z,96468.16
2024-03-11T00:30:56.752Z,96470.31
2024-03-11T00:32:28.610Z,96466.16
2024-03-11T00:34:00.294Z,96473.09
2024-03-11T00:35:33.970Z,96470.06
2024-03-11T00:37:05.782Z,96470.06
2024-03-11T00:38:38.030Z,96467.69
2024-03-11T00:40:10.085Z,96477.06
2024-03-11T00:41:41.796Z,96470.50
2024-03-11T00:43:13.491Z,96466.25
2024-03-11T00:44:45.413Z,96475.44
2024-03-11T00:46:17.316Z,96473.00
2024-03-11T00:47:48.977Z,96469.78
2024-03-11T00:49:23.284Z,96473.09
2024-03-11T00:50:55.142Z,96474.78
2024-03-11T00:52:26.827Z,96475.88
2024-03-11T00:53:58.577Z,96489.81
2024-03-11T00:55:30.229Z,96481.69
2024-03-11T00:57:02.511Z,96488.63
2024-03-11T00:58:35.722Z,96482.81
2024-03-11T01:00:16.151Z,96489.34
2024-03-11T01:01:47.874Z,96488.91
2024-03-11T01:03:20.326Z,96488.91
2024-03-11T01:04:53.801Z,96488.34
2024-03-11T01:06:26.756Z,96488.69
2024-03-11T01:07:58.407Z,96490.69
2024-03-11T01:09:30.156Z,96494.78
2024-03-11T01:11:01.896Z,96501.63
2024-03-11T01:12:33.687Z,96498.41
2024-03-11T01:14:06.025Z,96506.47
2024-03-11T01:15:37.690Z,96512.84
2024-03-11T01:17:09.419Z,96512.56
2024-03-11T01:18:41.151Z,96513.38
2024-03-11T01:20:16.641Z,96509.97
2024-03-11T01:21:52.008Z,96510.88
2024-03-11T01:23:23.919Z,96515.09
2024-03-11T01:24:57.606Z,96520.75
2024-03-11T01:26:29.355Z,96514.13
2024-03-11T01:28:01.420Z,96519.66
2024-03-11T01:29:33.066Z,96511.50
2024-03-11T01:31:07.863Z,96514.72
2024-03-11T01:32:41.053Z,96511.16
2024-03-11T01:34:14.204Z,96515.19
2024-03-11T01:35:45.921Z,96519.75
2024-03-11T01:37:17.587Z,96512.50
2024-03-11T01:38:49.288Z,96515.09
2024-03-11T01:40:23.200Z,96506.47
2024-03-11T01:41:54.839Z,96517.22
2024-03-11T01:43:26.389Z,96515.81
2024-03-11T01:44:58.022Z,96508.59
2024-03-11T01:46:30.331Z,96510.50
2024-03-11T01:48:02.597Z,96512.81
2024-03-11T01:49:34.435Z,96517.41
2024-03-11T01:51:06.455Z,96512.97
2024-03-11T01:53:04.676Z,96511.56
2024-03-11T01:54:39.378Z,96516.75
2024-03-11T01:56:10.996Z,96517.84
2024-03-11T01:57:43.638Z,96514.56
2024-03-11T01:59:16.019Z,96520.69
2024-03-11T02:00:47.984Z,96521.19
2024-03-11T02:02:21.497Z,96521.72
2024-03-11T02:03:53.131Z,96521.72
2024-03-11T02:05:27.242Z,96523.19
2024-03-11T02:06:58.976Z,96519.53
2024-03-11T02:08:31.442Z,96517.38
2024-03-11T02:10:07.754Z,96518.59
2024-03-11T02:11:39.943Z,96525.06
2024-03-11T02:13:11.638Z,96528.59
2024-03-11T02:14:43.376Z,96525.53
2024-03-11T02:16:15.195Z,96534.03
2024-03-11T02:17:47.614Z,96535.94
2024-03-11T02:19:19.692Z,96531.53
2024-03-11T02:20:52.096Z,96533.69
2024-03-11T02:22:23.803Z,96535.97
2024-03-11T02:23:55.423Z,96540.88
2024-03-11T02:25:29.480Z,96538.06
2024-03-11T02:27:03.252Z,96536.00
2024-03-11T02:28:34.911Z,96532.31
2024-03-11T02:30:09.038Z,96534.56
2024-03-11T02:31:40.661Z,96535.66
2024-03-11T02:33:12.439Z,96535.81
2024-03-11T02:34:44.052Z,96542.31
2024-03-11T02:36:16.160Z,96541.78
2024-03-11T02:37:48.531Z,96541.09
2024-03-11T02:39:22.886Z,96545.28
2024-03-11T02:40:54.566Z,96547.78
2024-03-11T02:42:26.531Z,96547.75
2024-03-11T02:43:58.115Z,96558.63
2024-03-11T02:45:31.774Z,96561.69
2024-03-11T02:47:03.736Z,96555.84
2024-03-11T02:48:36.366Z,96567.56
2024-03-11T02:50:11.364Z,96566.31
2024-03-11T02:51:43.796Z,96570.38
2024-03-11T02:53:17.063Z,96568.44
2024-03-11T02:54:51.752Z,96567.91
2024-03-11T02:56:24.187Z,96576.53
2024-03-11T02:57:55.842Z,96569.09
2024-03-11T02:59:27.553Z,96575.13
2024-03-11T03:00:59.490Z,96580.00
2024-03-11T03:02:31.126Z,96580.63
2024-03-11T03:04:02.770Z,96580.63
2024-03-11T03:05:34.552Z,96587.66
2024-03-11T03:07:07.580Z,96577.59
2024-03-11T03:08:39.313Z,96582.66
2024-03-11T03:10:11.680Z,96581.47
2024-03-11T03:11:43.509Z,96587.50
2024-03-11T03:13:15.157Z,96584.06
2024-03-11T03:14:46.814Z,96585.47
2024-03-11T03:16:18.752Z,96585.63
2024-03-11T03:17:50.531Z,96581.56
2024-03-11T03:19:22.211Z,96589.16
2024-03-11T03:20:53.935Z,96592.75
2024-03-11T03:22:25.649Z,96592.94
2024-03-11T03:23:57.882Z,96590.84
2024-03-11T03:25:34.261Z,96587.13
2024-03-11T03:27:07.204Z,96598.03
2024-03-11T03:28:38.922Z,96595.75
2024-03-11T03:30:11.205Z,96596.41
2024-03-11T03:31:43.057Z,96600.09
2024-03-11T03:33:14.791Z,96600.09
2024-03-11T03:34:46.913Z,96603.50
2024-03-11T03:36:20.129Z,96601.56
2024-03-11T03:37:53.233Z,96607.22
2024-03-11T03:39:25.706Z,96606.41
2024-03-11T03:40:57.770Z,96606.25
2024-03-11T03:42:29.448Z,96611.66
2024-03-11T03:44:01.109Z,96609.69
2024-03-11T03:45:32.745Z,96604.03
2024-03-11T03:47:04.446Z,96604.50
2024-03-11T03:48:36.547Z,96606.75
2024-03-11T03:50:11.742Z,96609.53
2024-03-11T03:51:44.237Z,96605.66
2024-03-11T03:53:15.915Z,96603.06
2024-03-11T03:54:48.016Z,96608.94
2024-03-11T03:56:19.662Z,96606.63
2024-03-11T03:57:51.444Z,96612.81
2024-03-11T03:59:23.346Z,96614.13
2024-03-11T04:00:55.361Z,96617.53
2024-03-11T04:02:27.173Z,96619.13
2024-03-11T04:03:59.659Z,96622.53
2024-03-11T04:05:32.224Z,96628.06
2024-03-11T04:07:04.446Z,96627.25
2024-03-11T04:08:36.119Z,96625.78
2024-03-11T04:10:14.907Z,96627.56
2024-03-11T04:11:46.811Z,96627.09
2024-03-11T04:13:18.714Z,96629.19
2024-03-11T04:14:50.376Z,96629.34
2024-03-11T04:16:21.995Z,96628.53
2024-03-11T04:17:55.176Z,96624.81
2024-03-11T04:19:27.578Z,96627.56
2024-03-11T04:20:59.226Z,96627.56
2024-03-11T04:22:30.812Z,96629.34
2024-03-11T04:24:03.869Z,96628.22
2024-03-11T04:25:38.549Z,96631.63
2024-03-11T04:27:12.923Z,96632.63
2024-03-11T04:28:44.772Z,96633.28
2024-03-11T04:30:20.464Z,96632.28
2024-03-11T04:31:52.040Z,96630.69
2024-03-11T04:33:24.108Z,96636.19
2024-03-11T04:34:55.783Z,96633.25
2024-03-11T04:36:27.429Z,96634.69
2024-03-11T04:38:00.378Z,96630.16
2024-03-11T04:39:33.226Z,96634.69
2024-03-11T04:41:05.048Z,96629.69
2024-03-11T04:42:36.697Z,96640.88
2024-03-11T04:44:08.412Z,96631.13
2024-03-11T04:45:41.205Z,96630.84
2024-03-11T04:47:13.014Z,96636.50
2024-03-11T04:48:44.681Z,96628.88
2024-03-11T04:50:25.799Z,96637.00
2024-03-11T04:51:59.052Z,96633.53
2024-03-11T04:53:30.860Z,96632.91
2024-03-11T04:55:04.020Z,96634.00
2024-03-11T04:56:35.887Z,96637.75
2024-03-11T04:58:08.352Z,96633.88
2024-03-11T04:59:41.361Z,96643.34
2024-03-11T05:01:13.235Z,96642.03
2024-03-11T05:02:45.009Z,96651.00
2024-03-11T05:04:16.712Z,96646.34
2024-03-11T05:05:48.374Z,96654.38
2024-03-11T05:07:19.961Z,96660.41
2024-03-11T05:08:52.838Z,96654.94
2024-03-11T05:10:25.253Z,96663.81
2024-03-11T05:11:58.438Z,96653.38
2024-03-11T05:13:30.496Z,96661.66
2024-03-11T05:15:02.274Z,96656.81
2024-03-11T05:16:34.299Z,96662.50
2024-03-11T05:18:06.199Z,96665.44
2024-03-11T05:19:37.932Z,96671.84
2024-03-11T05:21:10.679Z,96667.69
2024-03-11T05:22:43.317Z,96671.91
2024-03-11T05:24:15.041Z,96671.44
2024-03-11T05:25:46.751Z,96668.16
2024-03-11T05:27:21.555Z,96677.91
2024-03-11T05:28:53.189Z,96675.00
2024-03-11T05:30:26.161Z,96672.59
2024-03-11T05:31:58.789Z,96677.13
2024-03-11T05:33:30.731Z,96679.03
2024-03-11T05:35:03.021Z,96682.31
2024-03-11T05:36:34.676Z,96679.19
2024-03-11T05:38:06.413Z,96685.88
2024-03-11T05:39:38.137Z,96679.53
2024-03-11T05:41:10.642Z,96679.50
2024-03-11T05:42:42.838Z,96674.44
2024-03-11T05:44:16.859Z,96683.16
2024-03-11T05:45:48.733Z,96683.53
2024-03-11T05:47:20.425Z,96688.50
2024-03-11T05:48:52.597Z,96695.72
2024-03-11T05:50:25.383Z,96690.56
2024-03-11T05:51:57.256Z,96693.16
2024-03-11T05:53:30.118Z,96694.97
2024-03-11T05:55:05.643Z,96693.53
2024-03-11T05:56:38.898Z,96691.03
2024-03-11T05:58:12.008Z,96696.75
2024-03-11T05:59:43.707Z,96700.81
2024-03-11T06:01:15.526Z,96705.69
2024-03-11T06:02:48.508Z,96707.88
2024-03-11T06:04:20.891Z,96717.34
2024-03-11T06:05:53.215Z,96722.63
2024-03-11T06:07:25.751Z,96722.44
2024-03-11T06:08:57.647Z,96729.56
2024-03-11T06:10:29.283Z,96734.47
2024-03-11T06:12:01.123Z,96734.16
2024-03-11T06:13:32.794Z,96740.06
2024-03-11T06:15:04.871Z,96740.25
2024-03-11T06:16:36.813Z,96748.44
2024-03-11T06:18:09.510Z,96751.06
2024-03-11T06:19:41.258Z,96748.22
2024-03-11T06:21:12.905Z,96765.47
2024-03-11T06:22:45.709Z,96758.84
2024-03-11T06:24:18.180Z,96762.66
2024-03-11T06:25:49.920Z,96762.88
2024-03-11T06:27:21.591Z,96762.88
2024-03-11T06:28:53.376Z,96770.31
2024-03-11T06:30:25.009Z,96771.78
2024-03-11T06:31:57.079Z,96775.88
2024-03-11T06:33:28.783Z,96777.16
2024-03-11T06:35:02.058Z,96774.84
2024-03-11T06:36:34.484Z,96774.56
2024-03-11T06:38:06.127Z,96780.81
2024-03-11T06:39:37.966Z,96783.59
2024-03-11T06:41:09.714Z,96775.34
2024-03-11T06:42:41.437Z,96775.84
2024-03-11T06:44:18.000Z,96779.25
2024-03-11T06:45:52.844Z,96782.84
2024-03-11T06:47:24.581Z,96787.00
2024-03-11T06:48:57.191Z,96782.06
2024-03-11T06:50:29.289Z,96789.53
2024-03-11T06:52:01.596Z,96793.31
2024-03-11T06:53:33.248Z,96791.34
2024-03-11T06:55:11.572Z,96791.56
2024-03-11T06:56:43.295Z,96785.44
2024-03-11T06:58:14.961Z,96794.16
2024-03-11T06:59:46.789Z,96796.94
2024-03-11T07:01:18.846Z,96790.16
2024-03-11T07:02:50.836Z,96793.41
2024-03-11T07:04:22.529Z,96796.16
2024-03-11T07:05:54.234Z,96793.72
2024-03-11T07:07:26.957Z,96794.06
2024-03-11T07:08:58.643Z,96799.72
2024-03-11T07:10:30.375Z,96796.66
2024-03-11T07:12:02.177Z,96801.88
2024-03-11T07:13:34.190Z,96797.47
2024-03-11T07:15:06.505Z,96804.94
2024-03-11T07:16:38.233Z,96794.38
2024-03-11T07:18:10.216Z,96803.13
2024-03-11T07:19:42.269Z,96805.91
2024-03-11T07:21:14.024Z,96808.34
2024-03-11T07:22:46.317Z,96805.91
2024-03-11T07:24:20.568Z,96803.44
2024-03-11T07:25:52.385Z,96804.91
2024-03-11T07:27:24.140Z,96805.50
2024-03-11T07:28:55.974Z,96809.16
2024-03-11T07:30:27.638Z,96804.81
2024-03-11T07:31:59.440Z,96803.75
2024-03-11T07:33:31.116Z,96806.16
2024-03-11T07:35:04.309Z,96806.88
2024-03-11T07:36:36.924Z,96810.38
2024-03-11T07:38:09.743Z,96810.34
2024-03-11T07:39:41.536Z,96819.91
2024-03-11T07:41:14.866Z,96826.94
2024-03-11T07:42:46.524Z,96828.56
2024-03-11T07:44:19.325Z,96833.50
2024-03-11T07:45:51.029Z,96831.75
2024-03-11T07:47:23.380Z,96832.66
2024-03-11T07:48:55.630Z,96848.00
2024-03-11T07:50:27.555Z,96838.66
2024-03-11T07:52:01.176Z,96846.56
2024-03-11T07:53:32.945Z,96847.72
2024-03-11T07:55:04.993Z,96838.56
2024-03-11T07:56:36.625Z,96841.41
2024-03-11T07:58:08.494Z,96848.31
2024-03-11T07:59:40.213Z,96846.81
2024-03-11T08:01:12.076Z,96849.75
2024-03-11T08:02:43.860Z,96846.13
2024-03-11T08:04:15.486Z,96850.63
2024-03-11T08:05:47.202Z,96851.59
2024-03-11T08:07:18.843Z,96856.81
2024-03-11T08:08:53.886Z,96855.28
2024-03-11T08:10:27.153Z,96852.56
2024-03-11T08:12:02.524Z,96856.69
2024-03-11T08:13:34.286Z,96853.19
2024-03-11T08:15:16.305Z,96862.00
2024-03-11T08:16:48.073Z,96864.69
2024-03-11T08:18:21.596Z,96859.44
2024-03-11T08:19:53.473Z,96862.09
2024-03-11T08:21:25.156Z,96856.19
2024-03-11T08:22:58.376Z,96857.16
2024-03-11T08:24:30.024Z,96853.75
2024-03-11T08:26:02.428Z,96856.13
2024-03-11T08:27:34.474Z,96852.91
2024-03-11T08:29:06.123Z,96856.38
2024-03-11T08:30:37.756Z,96861.22
2024-03-11T08:32:10.411Z,96864.72
2024-03-11T08:33:42.084Z,96859.31
2024-03-11T08:35:17.975Z,96863.94
2024-03-11T08:36:49.714Z,96869.47
2024-03-11T08:38:21.451Z,96873.56
2024-03-11T08:39:53.120Z,96872.19
2024-03-11T08:41:25.028Z,96865.22
2024-03-11T08:42:57.972Z,96878.31
2024-03-11T08:44:31.172Z,96876.28
2024-03-11T08:46:03.203Z,96874.38
2024-03-11T08:47:34.842Z,96870.66
2024-03-11T08:49:06.542Z,96882.47
2024-03-11T08:50:39.038Z,96877.13
2024-03-11T08:52:13.859Z,96882.34
2024-03-11T08:53:45.491Z,96882.41
2024-03-11T08:55:18.043Z,96888.28
2024-03-11T08:56:49.905Z,96884.06
2024-03-11T08:58:21.550Z,96890.81
2024-03-11T08:59:53.244Z,96890.63
2024-03-11T09:01:25.101Z,96896.81
2024-03-11T09:02:56.808Z,96890.97
2024-03-11T09:04:30.047Z,96892.91
2024-03-11T09:06:03.406Z,96893.59
2024-03-11T09:07:36.568Z,96893.91
2024-03-11T09:09:09.684Z,96893.91
2024-03-11T09:10:43.023Z,96897.97
2024-03-11T09:12:15.793Z,96898.88
2024-03-11T09:13:47.504Z,96896.88
2024-03-11T09:15:20.684Z,96904.06
2024-03-11T09:16:56.590Z,96898.22
2024-03-11T09:18:28.313Z,96892.88
2024-03-11T09:20:00.092Z,96897.78
2024-03-11T09:21:32.344Z,96886.19
2024-03-11T09:23:04.124Z,96890.44
2024-03-11T09:24:35.868Z,96886.97
2024-03-11T09:26:11.238Z,96882.16
2024-03-11T09:27:43.929Z,96885.81
2024-03-11T09:29:17.048Z,96886.56
2024-03-11T09:30:48.766Z,96889.06
2024-03-11T09:32:22.683Z,96880.06
2024-03-11T09:33:54.534Z,96885.34
2024-03-11T09:35:26.302Z,96881.28
2024-03-11T09:36:58.051Z,96887.72
2024-03-11T09:38:30.845Z,96886.94
2024-03-11T09:40:02.728Z,96891.16
2024-03-11T09:41:44.194Z,96895.31
2024-03-11T09:43:18.743Z,96891.69
2024-03-11T09:44:52.448Z,96893.00
2024-03-11T09:46:25.049Z,96898.19
2024-03-11T09:48:02.007Z,96897.13
2024-03-11T09:49:35.671Z,96892.09
2024-03-11T09:51:11.496Z,96901.00
2024-03-11T09:52:45.495Z,96897.72
2024-03-11T09:54:19.248Z,96900.75
2024-03-11T09:55:55.972Z,96895.66
2024-03-11T09:57:28.015Z,96903.88
2024-03-11T09:58:59.923Z,96898.84
2024-03-11T10:00:36.205Z,96898.22
2024-03-11T10:02:14.908Z,96898.38
2024-03-11T10:03:46.845Z,96900.34
2024-03-11T10:05:20.944Z,96895.41
2024-03-11T10:07:06.034Z,96897.47
2024-03-11T10:08:38.392Z,96912.59
2024-03-11T10:10:13.329Z,96904.59
2024-03-11T10:12:00.998Z,96906.41
2024-03-11T10:13:32.609Z,96907.66
2024-03-11T10:15:04.438Z,96903.31
2024-03-11T10:16:36.110Z,96902.28
2024-03-11T10:18:10.794Z,96902.72
2024-03-11T10:19:47.045Z,96896.91
2024-03-11T10:21:18.838Z,96906.84
2024-03-11T10:22:50.633Z,96902.91
2024-03-11T10:24:22.345Z,96913.66
2024-03-11T10:26:18.697Z,96910.28
2024-03-11T10:27:50.819Z,96910.78
2024-03-11T10:29:32.536Z,96909.34
2024-03-11T10:31:20.078Z,96908.13
2024-03-11T10:32:58.356Z,96908.16
2024-03-11T10:34:30.411Z,96911.28
2024-03-11T10:36:08.396Z,96912.94
2024-03-11T10:37:42.864Z,96905.06
2024-03-11T10:39:24.471Z,96910.34
2024-03-11T10:40:56.619Z,96915.41
2024-03-11T10:42:34.007Z,96915.06
2024-03-11T10:44:16.438Z,96916.38
2024-03-11T10:45:51.186Z,96911.31
2024-03-11T10:47:24.134Z,96907.78
2024-03-11T10:48:56.515Z,96911.94
2024-03-11T10:50:34.700Z,96909.84
2024-03-11T10:52:15.339Z,96914.16
2024-03-11T10:53:48.794Z,96919.41
2024-03-11T10:55:23.267Z,96908.38
2024-03-11T10:56:56.735Z,96915.81
2024-03-11T10:58:29.923Z,96902.66
2024-03-11T11:00:18.492Z,96908.25
2024-03-11T11:01:58.640Z,96904.16
2024-03-11T11:03:32.666Z,96899.84
2024-03-11T11:05:07.679Z,96904.28
2024-03-11T11:06:40.626Z,96907.00
2024-03-11T11:08:15.379Z,96915.31
2024-03-11T11:09:50.727Z,96908.66
2024-03-11T11:11:24.193Z,96910.28
2024-03-11T11:12:56.118Z,96903.59
2024-03-11T11:14:30.710Z,96897.16
2024-03-11T11:16:05.421Z,96917.97
2024-03-11T11:17:38.730Z,96903.66
2024-03-11T11:19:14.319Z,96904.81
2024-03-11T11:20:48.749Z,96902.69
2024-03-11T11:22:20.735Z,96903.66
2024-03-11T11:23:52.985Z,96901.44
2024-03-11T11:25:42.922Z,96902.34
2024-03-11T11:27:25.438Z,96909.53
2024-03-11T11:29:03.135Z,96902.81
2024-03-11T11:30:34.818Z,96900.81
2024-03-11T11:32:07.962Z,96905.47
2024-03-11T11:33:56.695Z,96898.88
2024-03-11T11:35:37.269Z,96903.31
2024-03-11T11:37:09.094Z,96894.47
2024-03-11T11:38:41.970Z,96899.34
2024-03-11T11:40:33.583Z,96912.81
2024-03-11T11:42:07.806Z,96911.28
2024-03-11T11:43:45.958Z,96911.31
2024-03-11T11:45:47.120Z,96914.88
2024-03-11T11:47:21.099Z,96915.38
2024-03-11T11:48:53.390Z,96909.69
2024-03-11T11:50:27.808Z,96911.53
2024-03-11T11:51:59.715Z,96913.38
2024-03-11T11:53:34.560Z,96913.03
2024-03-11T11:55:08.649Z,96909.81
2024-03-11T11:56:42.318Z,96917.47
2024-03-11T11:58:15.331Z,96919.63
2024-03-11T11:59:48.354Z,96916.00
2024-03-11T12:01:20.396Z,96918.47
2024-03-11T12:02:54.265Z,96922.31
2024-03-11T12:04:25.921Z,96918.63
2024-03-11T12:06:02.765Z,96916.97
2024-03-11T12:07:41.437Z,96922.75
2024-03-11T12:09:17.326Z,96918.44
2024-03-11T12:11:08.318Z,96921.78
2024-03-11T12:12:46.015Z,96923.59
2024-03-11T12:14:20.338Z,96912.91
2024-03-11T12:15:52.321Z,96912.19
2024-03-11T12:17:26.987Z,96915.53
2024-03-11T12:19:03.874Z,96910.53
2024-03-11T12:20:36.976Z,96915.75
2024-03-11T12:22:14.826Z,96911.66
2024-03-11T12:23:46.953Z,96916.59
2024-03-11T12:25:19.243Z,96910.03
2024-03-11T12:26:51.702Z,96912.25
2024-03-11T12:28:23.578Z,96904.06
2024-03-11T12:30:05.009Z,96904.97
2024-03-11T12:31:38.001Z,96911.16
2024-03-11T12:33:15.889Z,96911.75
2024-03-11T12:34:50.520Z,96907.97
2024-03-11T12:36:22.569Z,96914.88
2024-03-11T12:37:54.690Z,96911.03
2024-03-11T12:39:35.305Z,96913.22
2024-03-11T12:41:07.143Z,96921.94
2024-03-11T12:42:39.450Z,96927.00
2024-03-11T12:44:12.753Z,96930.72
2024-03-11T12:45:48.885Z,96933.34
2024-03-11T12:47:21.712Z,96937.41
2024-03-11T12:48:53.869Z,96937.25
2024-03-11T12:50:25.596Z,96939.38
2024-03-11T12:52:14.021Z,96935.22
2024-03-11T12:53:47.278Z,96934.91
2024-03-11T12:55:23.834Z,96928.03
2024-03-11T12:57:17.266Z,96934.19
2024-03-11T12:58:49.032Z,96929.38
2024-03-11T13:00:26.526Z,96932.59
2024-03-11T13:02:21.773Z,96936.59
2024-03-11T13:03:53.608Z,96936.13
2024-03-11T13:05:25.306Z,96938.59
2024-03-11T13:07:07.100Z,96939.69
2024-03-11T13:08:42.381Z,96925.63
2024-03-11T13:10:17.615Z,96939.50
2024-03-11T13:11:59.236Z,96942.13
2024-03-11T13:13:32.335Z,96940.03
2024-03-11T13:15:06.325Z,96950.22
2024-03-11T13:16:38.803Z,96939.06
2024-03-11T13:18:10.581Z,96943.56
2024-03-11T13:19:43.267Z,96938.75
2024-03-11T13:21:15.571Z,96937.13
2024-03-11T13:22:47.274Z,96947.56
2024-03-11T13:24:20.795Z,96950.59
2024-03-11T13:25:53.741Z,96951.81
2024-03-11T13:27:26.102Z,96954.03
2024-03-11T13:28:58.908Z,96954.59
2024-03-11T13:30:30.635Z,96955.50
2024-03-11T13:32:03.404Z,96952.63
2024-03-11T13:33:42.569Z,96955.41
2024-03-11T13:35:15.082Z,96950.72
2024-03-11T13:36:46.966Z,96951.63
2024-03-11T13:38:19.593Z,96952.94
2024-03-11T13:39:51.331Z,96957.63
2024-03-11T13:41:23.244Z,96962.38
2024-03-11T13:42:55.062Z,96959.31
2024-03-11T13:44:28.848Z,96969.44
2024-03-11T13:46:01.237Z,96966.69
2024-03-11T13:47:32.910Z,96962.97
2024-03-11T13:49:05.461Z,96962.53
2024-03-11T13:50:39.968Z,96959.81
2024-03-11T13:52:11.851Z,96959.28
2024-03-11T13:53:47.681Z,96965.75
2024-03-11T13:55:19.454Z,96967.34
2024-03-11T13:56:51.837Z,96969.09
2024-03-11T13:58:25.759Z,96969.47
2024-03-11T13:59:57.694Z,96965.41
2024-03-11T14:01:31.118Z,96977.63
2024-03-11T14:03:03.656Z,96968.25
2024-03-11T14:04:35.363Z,96973.31
2024-03-11T14:06:09.374Z,96975.78
2024-03-11T14:07:45.409Z,96970.22
2024-03-11T14:09:19.811Z,96972.06
2024-03-11T14:10:51.687Z,96970.75
2024-03-11T14:12:23.387Z,96980.03
2024-03-11T14:13:55.123Z,96979.47
2024-03-11T14:15:26.856Z,96975.22
2024-03-11T14:16:58.560Z,96976.72
2024-03-11T14:18:30.863Z,96971.03
2024-03-11T14:20:02.741Z,96981.56
2024-03-11T14:21:35.281Z,96976.16
2024-03-11T14:23:07.875Z,96983.31
2024-03-11T14:24:39.642Z,96980.06
2024-03-11T14:26:12.754Z,96981.38
2024-03-11T14:27:49.612Z,96983.75
2024-03-11T14:29:21.851Z,96978.47
2024-03-11T14:30:54.942Z,96984.16
2024-03-11T14:32:27.863Z,96990.47
2024-03-11T14:33:59.615Z,96987.84
2024-03-11T14:35:32.697Z,97001.88
2024-03-11T14:37:04.651Z,96997.06
2024-03-11T14:38:39.421Z,96999.78
2024-03-11T14:40:13.711Z,97008.50
2024-03-11T14:41:46.834Z,96999.97
2024-03-11T14:43:19.860Z,97014.78
2024-03-11T14:44:52.023Z,97010.91
2024-03-11T14:46:26.443Z,97012.28
2024-03-11T14:48:00.392Z,97014.97
2024-03-11T14:49:34.889Z,97009.66
2024-03-11T14:51:06.553Z,97021.81
2024-03-11T14:52:38.149Z,97019.63
2024-03-11T14:54:30.944Z,97014.78
2024-03-11T14:56:05.152Z,97014.72
2024-03-11T14:57:36.816Z,97016.09
2024-03-11T14:59:08.463Z,97022.81
2024-03-11T15:00:50.929Z,97028.06
2024-03-11T15:02:22.868Z,97029.25
2024-03-11T15:03:54.867Z,97029.22
2024-03-11T15:05:26.730Z,97027.00
2024-03-11T15:06:58.560Z,97031.66
2024-03-11T15:08:32.571Z,97034.75
2024-03-11T15:10:06.463Z,97037.78
2024-03-11T15:11:39.731Z,97040.66
2024-03-11T15:13:12.471Z,97050.22
2024-03-11T15:14:44.191Z,97039.41
2024-03-11T15:16:29.121Z,97039.69
2024-03-11T15:18:07.159Z,97041.72
2024-03-11T15:19:41.375Z,97042.53
2024-03-11T15:21:16.252Z,97055.50
2024-03-11T15:22:47.990Z,97046.41
2024-03-11T15:24:19.831Z,97040.19
2024-03-11T15:25:52.343Z,97042.22
2024-03-11T15:27:25.238Z,97040.59
2024-03-11T15:28:56.996Z,97038.38
2024-03-11T15:30:28.746Z,97041.59
2024-03-11T15:32:00.716Z,97044.00
2024-03-11T15:33:32.415Z,97042.19
2024-03-11T15:35:05.261Z,97044.84
2024-03-11T15:36:38.609Z,97041.84
2024-03-11T15:38:13.501Z,97042.81
2024-03-11T15:39:46.097Z,97050.31
2024-03-11T15:41:17.778Z,97045.28
2024-03-11T15:42:50.226Z,97049.09
2024-03-11T15:44:21.949Z,97054.19
2024-03-11T15:45:53.643Z,97058.03
2024-03-11T15:47:26.253Z,97061.28
2024-03-11T15:48:59.983Z,97068.97
2024-03-11T15:50:36.201Z,97065.72
2024-03-11T15:52:08.046Z,97062.88
2024-03-11T15:53:41.400Z,97072.56
2024-03-11T15:55:13.601Z,97068.53
2024-03-11T15:56:46.144Z,97072.81
2024-03-11T15:58:19.603Z,97080.25
2024-03-11T15:59:51.386Z,97079.44
2024-03-11T16:01:25.936Z,97089.94
2024-03-11T16:03:00.578Z,97079.88
2024-03-11T16:04:33.591Z,97081.25
2024-03-11T16:06:07.149Z,97098.41
2024-03-11T16:07:38.838Z,97081.88
2024-03-11T16:09:12.170Z,97090.78
2024-03-11T16:10:44.152Z,97094.75
2024-03-11T16:12:16.147Z,97094.34
2024-03-11T16:13:47.844Z,97093.88
2024-03-11T16:15:23.461Z,97096.00
2024-03-11T16:16:55.334Z,97092.69
2024-03-11T16:18:29.274Z,97096.56
2024-03-11T16:20:01.783Z,97099.19
2024-03-11T16:21:33.981Z,97097.34
2024-03-11T16:23:06.225Z,97097.34
2024-03-11T16:24:38.608Z,97092.28
2024-03-11T16:26:10.323Z,97093.00
2024-03-11T16:27:43.091Z,97102.69
2024-03-11T16:29:17.715Z,97091.00
2024-03-11T16:30:49.518Z,97102.84
2024-03-11T16:32:21.256Z,97101.38
2024-03-11T16:33:54.418Z,97105.28
2024-03-11T16:35:28.472Z,97104.50
2024-03-11T16:37:00.376Z,97105.31
2024-03-11T16:38:32.023Z,97103.88
2024-03-11T16:40:12.657Z,97114.81
2024-03-11T16:41:44.440Z,97113.41
2024-03-11T16:43:17.429Z,97121.06
2024-03-11T16:44:50.554Z,97123.69
2024-03-11T16:46:22.662Z,97119.25
2024-03-11T16:47:56.197Z,97124.50
2024-03-11T16:49:27.985Z,97124.13
2024-03-11T16:50:59.797Z,97125.16
2024-03-11T16:52:32.719Z,97125.31
2024-03-11T16:54:06.116Z,97135.19
2024-03-11T16:55:41.844Z,97134.97
2024-03-11T16:57:14.364Z,97131.88
2024-03-11T16:58:47.787Z,97134.09
2024-03-11T17:00:23.109Z,97141.00
2024-03-11T17:01:57.219Z,97138.53
2024-03-11T17:03:29.841Z,97137.69
2024-03-11T17:05:07.825Z,97136.44
2024-03-11T17:06:39.678Z,97135.41
2024-03-11T17:08:15.281Z,97133.19
2024-03-11T17:09:48.494Z,97136.19
2024-03-11T17:11:20.261Z,97141.22
2024-03-11T17:12:52.199Z,97152.47
2024-03-11T17:14:27.256Z,97146.78
2024-03-11T17:16:01.132Z,97150.91
2024-03-11T17:17:32.907Z,97148.13
2024-03-11T17:19:04.969Z,97154.56
2024-03-11T17:20:41.953Z,97160.19
2024-03-11T17:22:15.612Z,97154.31
2024-03-11T17:23:47.203Z,97157.94
2024-03-11T17:25:24.451Z,97164.38
2024-03-11T17:26:56.123Z,97167.44
2024-03-11T17:28:28.640Z,97167.34
2024-03-11T17:30:00.339Z,97171.81
2024-03-11T17:31:31.945Z,97172.75
2024-03-11T17:33:10.245Z,97172.75
2024-03-11T17:34:43.284Z,97172.50
2024-03-11T17:36:15.007Z,97178.72
2024-03-11T17:37:46.793Z,97183.50
2024-03-11T17:39:19.061Z,97184.66
2024-03-11T17:40:53.598Z,97185.88
2024-03-11T17:42:27.413Z,97193.47
2024-03-11T17:44:01.417Z,97196.59
2024-03-11T17:45:33.984Z,97202.72
2024-03-11T17:47:07.182Z,97197.22
2024-03-11T17:48:38.880Z,97201.19
2024-03-11T17:50:15.371Z,97198.13
2024-03-11T17:51:47.154Z,97207.56
2024-03-11T17:53:19.418Z,97214.78
2024-03-11T17:54:51.976Z,97216.75
2024-03-11T17:56:23.662Z,97221.00
2024-03-11T17:57:56.438Z,97222.72
2024-03-11T17:59:28.947Z,97229.75
2024-03-11T18:01:03.208Z,97228.94
2024-03-11T18:02:36.531Z,97232.22
2024-03-11T18:04:08.176Z,97226.69
2024-03-11T18:05:41.766Z,97231.94
2024-03-11T18:07:13.623Z,97236.00
2024-03-11T18:08:45.316Z,97232.22
2024-03-11T18:10:16.998Z,97242.88
2024-03-11T18:11:52.379Z,97244.13
2024-03-11T18:13:24.133Z,97238.81
2024-03-11T18:14:55.751Z,97253.09
2024-03-11T18:16:27.512Z,97250.91
2024-03-11T18:18:02.748Z,97247.94